Time;durP1;ratioP1;P1;durP2;ratioP2;P2;SDS_P1;SDS_P2;PMS_P1;PMS_P2;Temp;Humidity;BMP_temperature;BMP_pressure;BME280_temperature;BME280_humidity;BME280_pressure;Samples;Min_cycle;Max_cycle;Signal;HPM_P1;HPM_P2
2021/08/28 00:02:23;;;;;;;7.70;5.10;;;14.40;78.30;;;13.13;78.84;95931.84;4970048;28;20054;-70
2021/08/28 00:04:50;;;;;;;8.82;5.88;;;14.40;78.30;;;13.11;79.31;95928.59;4988605;28;20031;-69
2021/08/28 00:07:16;;;;;;;7.10;5.35;;;14.40;78.30;;;13.08;79.93;95934.28;4972860;28;20048;-69
2021/08/28 00:09:42;;;;;;;8.30;5.95;;;14.40;78.60;;;13.03;79.70;95932.28;4973782;28;20034;-70
2021/08/28 00:12:08;;;;;;;9.25;5.82;;;14.30;78.70;;;13.00;79.34;95926.59;4985602;28;20502;-69
2021/08/28 00:14:33;;;;;;;9.48;6.25;;;14.30;78.80;;;12.95;80.02;95931.72;4970601;28;20050;-69
2021/08/28 00:16:59;;;;;;;7.40;5.40;;;14.10;79.00;;;12.97;79.68;95921.75;4973643;28;20054;-69
2021/08/28 00:19:25;;;;;;;7.88;5.65;;;14.20;79.40;;;12.92;79.51;95925.03;4972173;28;20071;-69
2021/08/28 00:21:50;;;;;;;8.68;5.68;;;14.10;79.30;;;12.94;80.17;95922.97;4970483;28;20613;-69
2021/08/28 00:24:16;;;;;;;7.47;5.65;;;14.10;79.50;;;12.92;79.90;95924.22;4989626;28;20567;-70
2021/08/28 00:26:42;;;;;;;8.15;5.78;;;14.10;79.30;;;12.90;79.79;95921.78;4950964;28;20130;-69
2021/08/28 00:29:08;;;;;;;8.15;5.60;;;14.20;79.40;;;12.93;81.03;95920.53;4970051;28;20101;-69
2021/08/28 00:31:33;;;;;;;8.50;5.68;;;14.20;79.40;;;12.89;80.03;95913.00;4969212;28;20046;-69
2021/08/28 00:33:59;;;;;;;8.05;6.07;;;14.20;79.10;;;12.89;80.39;95915.66;4986319;28;20121;-70
2021/08/28 00:36:25;;;;;;;8.02;5.65;;;14.20;79.30;;;12.91;80.20;95912.84;4970914;28;20038;-69
2021/08/28 00:38:51;;;;;;;8.27;5.43;;;14.30;79.20;;;12.94;80.99;95922.16;4954612;28;20046;-69
2021/08/28 00:41:16;;;;;;;6.85;5.30;;;14.40;79.70;;;12.92;81.37;95914.47;4986741;28;20042;-70
2021/08/28 00:43:42;;;;;;;8.43;5.25;;;14.40;79.50;;;12.95;81.55;95914.03;4990186;28;20035;-69
2021/08/28 00:46:08;;;;;;;6.40;5.35;;;14.40;79.70;;;12.94;81.73;95909.78;4984007;28;20037;-69
2021/08/28 00:48:34;;;;;;;7.45;5.60;;;14.30;80.00;;;12.96;81.17;95912.22;4985086;28;20042;-69
2021/08/28 00:51:00;;;;;;;8.35;6.25;;;14.30;80.00;;;12.92;81.74;95908.38;4963652;28;20047;-69
2021/08/28 00:53:25;;;;;;;9.10;5.80;;;14.10;80.80;;;12.93;82.33;95915.28;4969999;28;20034;-69
2021/08/28 00:55:52;;;;;;;7.65;6.10;;;14.20;81.00;;;12.93;82.46;95915.28;4986724;28;20128;-69
2021/08/28 00:58:22;;;;;;;12.82;7.00;;;14.20;80.80;;;12.89;82.94;95915.66;4971729;28;20036;-69
2021/08/28 01:00:55;;;;;;;9.10;6.65;;;14.20;81.30;;;12.92;82.76;95916.28;4965545;28;20030;-69
2021/08/28 01:03:26;;;;;;;8.40;6.50;;;14.30;81.50;;;12.88;83.86;95914.03;4987805;28;20038;-69
2021/08/28 01:06:05;;;;;;;10.25;7.30;;;14.10;81.60;;;12.87;85.02;95912.41;4985151;28;20037;-70
2021/08/28 01:08:51;;;;;;;9.13;6.85;;;14.20;82.00;;;12.85;85.17;95914.44;4984330;28;20128;-69
2021/08/28 01:11:41;;;;;;;12.43;7.75;;;14.10;82.00;;;12.83;84.97;95911.22;4978992;28;20027;-69
2021/08/28 01:14:14;;;;;;;9.77;7.00;;;14.10;82.30;;;12.80;84.57;95910.81;4969190;28;20030;-70
2021/08/28 01:16:43;;;;;;;7.63;6.80;;;14.10;82.60;;;12.78;84.34;95908.38;4970962;28;20026;-70
2021/08/28 01:19:23;;;;;;;8.65;6.93;;;14.10;82.60;;;12.76;84.43;95920.19;4969553;28;20030;-70
2021/08/28 01:21:49;;;;;;;9.13;7.00;;;14.00;82.70;;;12.72;84.58;95911.88;4968783;28;20413;-70
2021/08/28 01:24:15;;;;;;;9.93;7.10;;;14.10;83.10;;;12.70;85.21;95910.47;4983989;28;20034;-70
2021/08/28 01:26:55;;;;;;;7.95;6.80;;;14.00;83.20;;;12.71;85.70;95909.44;4970072;28;20065;-70
2021/08/28 01:29:28;;;;;;;10.10;7.00;;;14.10;83.30;;;12.67;85.95;95914.28;4956927;28;20059;-70
2021/08/28 01:31:54;;;;;;;8.63;7.13;;;13.90;83.40;;;12.63;85.16;95910.44;4962607;28;20113;-69
2021/08/28 01:34:20;;;;;;;8.38;7.07;;;13.90;83.50;;;12.57;85.10;95916.56;4945274;28;20134;-69
2021/08/28 01:36:46;;;;;;;9.85;7.57;;;13.80;83.90;;;12.57;86.15;95912.09;4969624;28;20049;-70
2021/08/28 01:39:11;;;;;;;9.25;6.97;;;13.90;83.80;;;12.55;86.10;95905.41;4975899;28;20042;-69
2021/08/28 01:41:38;;;;;;;9.07;7.13;;;13.90;83.90;;;12.58;85.74;95907.63;4983519;28;20034;-70
2021/08/28 01:44:11;;;;;;;8.57;6.70;;;14.00;83.80;;;12.58;86.88;95911.06;4971762;28;20045;-70
2021/08/28 01:46:39;;;;;;;7.80;6.78;;;14.00;83.90;;;12.61;86.70;95912.47;4965222;28;20516;-70
2021/08/28 01:49:06;;;;;;;7.57;6.65;;;13.90;83.70;;;12.60;86.15;95902.94;4968591;28;20042;-70
2021/08/28 01:51:32;;;;;;;9.13;7.25;;;14.00;83.60;;;12.59;86.15;95909.25;4979036;28;20097;-69
2021/08/28 01:53:58;;;;;;;7.93;6.72;;;14.00;83.80;;;12.59;86.18;95906.59;4966133;28;20082;-70
2021/08/28 01:56:24;;;;;;;7.32;6.10;;;14.00;83.80;;;12.56;86.83;95905.19;4952967;28;20040;-70
2021/08/28 01:58:51;;;;;;;7.70;6.20;;;13.90;83.90;;;12.61;86.10;95916.94;4953199;28;20377;-69
2021/08/28 02:01:16;;;;;;;8.52;6.90;;;14.00;83.40;;;12.58;86.35;95910.25;4966327;28;20066;-69
2021/08/28 02:03:42;;;;;;;11.80;7.20;;;13.90;83.90;;;12.56;86.81;95910.47;4983280;28;20031;-70
2021/08/28 02:06:13;;;;;;;7.63;5.70;;;13.90;83.90;;;12.57;87.17;95911.28;4987688;28;20038;-70
2021/08/28 02:08:53;;;;;;;9.35;6.57;;;13.90;83.80;;;12.57;88.24;95909.44;4982951;28;20038;-70
2021/08/28 02:11:24;;;;;;;12.85;6.97;;;14.00;83.80;;;12.59;87.36;95917.16;4970820;28;20545;-71
2021/08/28 02:14:06;;;;;;;7.68;6.47;;;13.90;83.90;;;12.57;88.22;95906.00;4987206;28;20030;-69
2021/08/28 02:16:32;;;;;;;8.38;6.57;;;13.90;83.70;;;12.57;86.87;95906.00;4986522;28;20030;-70
2021/08/28 02:19:18;;;;;;;7.53;6.30;;;13.90;83.70;;;12.57;87.71;95906.00;4973756;28;20119;-70
2021/08/28 02:21:46;;;;;;;6.88;5.90;;;14.00;83.70;;;12.56;87.20;95904.38;4943143;28;20042;-70
2021/08/28 02:24:19;;;;;;;7.63;6.10;;;13.90;83.80;;;12.56;86.90;95904.38;4971090;28;20038;-70
2021/08/28 02:26:51;;;;;;;8.32;6.13;;;13.90;83.70;;;12.58;86.43;95907.63;4970315;28;20094;-70
2021/08/28 02:29:27;;;;;;;7.85;6.55;;;13.90;83.20;;;12.57;87.91;95903.38;4986626;28;20034;-70
2021/08/28 02:31:53;;;;;;;9.00;6.38;;;14.00;83.70;;;12.58;86.97;95905.78;4966185;28;20589;-69
2021/08/28 02:34:19;;;;;;;9.50;6.38;;;14.00;83.50;;;12.57;86.98;95908.63;4948939;28;20154;-70
2021/08/28 02:36:45;;;;;;;10.70;7.15;;;13.90;83.90;;;12.56;86.92;95901.75;4957566;28;20038;-70
2021/08/28 02:39:11;;;;;;;7.78;6.40;;;14.00;83.90;;;12.58;86.71;95903.16;4981895;28;20092;-70
2021/08/28 02:41:37;;;;;;;9.15;6.78;;;14.00;83.80;;;12.60;86.70;95895.03;4961089;28;20042;-69
2021/08/28 02:44:04;;;;;;;7.60;6.72;;;14.00;83.60;;;12.60;87.03;95897.66;4969314;28;20046;-70
2021/08/28 02:46:30;;;;;;;8.23;6.55;;;14.00;83.70;;;12.60;87.78;95900.31;4956534;28;20100;-70
2021/08/28 02:48:56;;;;;;;9.35;7.03;;;14.00;83.90;;;12.61;86.88;95896.66;4966176;28;20042;-70
2021/08/28 02:51:22;;;;;;;8.73;7.13;;;14.10;83.80;;;12.60;87.32;95892.41;4985132;28;20050;-70
2021/08/28 02:53:48;;;;;;;9.82;7.25;;;14.00;83.80;;;12.57;87.59;95892.81;4963527;28;20549;-70
2021/08/28 02:56:14;;;;;;;11.10;7.60;;;14.00;83.80;;;12.54;86.96;95895.88;4985718;28;20046;-69
2021/08/28 02:58:40;;;;;;;11.68;7.32;;;13.80;84.10;;;12.53;87.29;95894.25;4964724;28;20035;-69
2021/08/28 03:01:06;;;;;;;10.82;8.18;;;13.80;84.20;;;12.53;87.66;95896.88;4967382;28;20109;-69
2021/08/28 03:03:33;;;;;;;10.80;7.68;;;13.80;84.30;;;12.51;88.13;95891.00;4967811;28;20531;-69
2021/08/28 03:05:59;;;;;;;11.52;9.05;;;13.90;84.40;;;12.51;88.00;95891.81;4963821;28;20053;-70
2021/08/28 03:08:24;;;;;;;13.48;10.05;;;13.90;84.50;;;12.53;87.82;95888.97;4967165;28;20031;-69
2021/08/28 03:10:51;;;;;;;11.40;9.25;;;13.90;84.20;;;12.53;87.48;95891.59;4970693;28;20050;-69
2021/08/28 03:13:18;;;;;;;13.68;10.50;;;14.00;84.20;;;12.51;87.54;95891.00;4985072;28;20033;-69
2021/08/28 03:15:45;;;;;;;12.70;10.15;;;14.00;83.80;;;12.53;88.14;95894.25;4969146;28;20046;-70
2021/08/28 03:18:12;;;;;;;21.90;19.17;;;14.00;83.80;;;12.53;88.27;95891.59;4984170;28;20053;-69
2021/08/28 03:20:37;;;;;;;12.15;9.73;;;14.10;84.00;;;12.53;87.84;95895.06;4968100;28;20089;-69
2021/08/28 03:23:03;;;;;;;10.25;8.43;;;14.10;84.00;;;12.56;88.37;95893.81;4965340;28;20031;-70
2021/08/28 03:25:30;;;;;;;9.63;7.65;;;14.00;84.00;;;12.55;87.70;95893.03;4970992;28;20530;-70
2021/08/28 03:27:55;;;;;;;8.98;7.40;;;14.00;84.00;;;12.54;88.04;95895.88;4967046;28;20031;-69
2021/08/28 03:30:21;;;;;;;10.18;7.22;;;14.00;84.20;;;12.54;88.29;95895.88;4968484;28;20057;-73
2021/08/28 03:32:47;;;;;;;10.20;8.27;;;13.90;84.20;;;12.52;88.42;95887.34;4985194;28;20175;-74
2021/08/28 03:35:13;;;;;;;9.05;7.78;;;13.90;84.50;;;12.54;88.38;95890.59;4953954;28;20066;-74
2021/08/28 03:37:39;;;;;;;8.35;7.22;;;13.90;84.40;;;12.53;88.71;95887.13;4973259;28;20038;-73
2021/08/28 03:40:09;;;;;;;9.50;8.50;;;13.90;84.40;;;12.53;88.58;95894.25;4979668;28;20081;-72
2021/08/28 03:42:40;;;;;;;10.43;8.18;;;13.90;84.30;;;12.47;88.64;95877.41;4971343;28;20142;-72
2021/08/28 03:45:07;;;;;;;9.85;8.48;;;13.90;84.40;;;12.47;88.67;95887.97;4984194;28;20035;-73
2021/08/28 03:47:35;;;;;;;9.68;8.68;;;13.80;84.30;;;12.43;88.63;95880.66;4975430;28;20121;-73
2021/08/28 03:50:01;;;;;;;11.02;7.93;;;13.80;84.50;;;12.43;87.94;95884.09;4974791;28;20125;-74
2021/08/28 03:52:27;;;;;;;11.70;8.90;;;13.80;84.60;;;12.43;88.56;95883.28;4999810;28;20069;-73
2021/08/28 03:54:52;;;;;;;10.75;8.40;;;13.90;84.70;;;12.42;88.94;95881.66;4991126;28;20501;-73
2021/08/28 03:57:18;;;;;;;11.13;8.45;;;13.90;84.40;;;12.43;88.85;95885.91;4972010;28;20058;-73
2021/08/28 03:59:44;;;;;;;9.02;7.78;;;13.80;84.60;;;12.44;88.72;95887.53;5003647;28;20514;-72
2021/08/28 04:02:09;;;;;;;11.15;7.80;;;13.90;84.70;;;12.41;89.01;95880.03;4992591;28;20579;-73
2021/08/28 04:04:35;;;;;;;9.63;7.80;;;13.80;84.50;;;12.41;88.33;95880.84;4985465;28;20043;-71
2021/08/28 04:07:01;;;;;;;9.93;8.70;;;13.80;84.70;;;12.42;88.68;95889.56;4987943;28;20042;-72
2021/08/28 04:09:27;;;;;;;11.15;8.18;;;13.80;84.80;;;12.37;89.06;95884.91;4999711;28;20125;-72
2021/08/28 04:11:52;;;;;;;9.00;7.95;;;13.80;84.90;;;12.39;89.03;95882.88;4974715;28;20482;-72
2021/08/28 04:14:18;;;;;;;9.60;8.02;;;13.80;84.80;;;12.38;89.28;95891.00;5003621;28;20026;-73
2021/08/28 04:16:44;;;;;;;10.02;8.05;;;13.70;84.90;;;12.35;89.38;95886.97;4974619;28;20560;-72
2021/08/28 04:19:09;;;;;;;10.65;8.25;;;13.70;84.90;;;12.35;88.84;95888.78;4975123;28;20030;-72
2021/08/28 04:21:35;;;;;;;9.27;7.68;;;13.70;85.00;;;12.32;88.97;95883.91;4974827;28;20088;-73
2021/08/28 04:24:01;;;;;;;10.45;8.07;;;13.70;85.00;;;12.34;88.92;95879.25;4977081;28;20081;-72
2021/08/28 04:26:27;;;;;;;8.75;7.85;;;13.80;84.90;;;12.38;89.62;95891.00;4991459;28;20462;-72
2021/08/28 04:28:55;;;;;;;9.45;8.45;;;13.80;85.00;;;12.37;89.62;95884.91;4988108;28;20108;-73
2021/08/28 04:31:21;;;;;;;9.82;8.38;;;13.70;84.80;;;12.37;89.34;95890.19;4990848;28;20405;-70
2021/08/28 04:33:47;;;;;;;11.00;8.82;;;13.70;84.90;;;12.36;89.49;95888.59;4990097;28;20216;-73
2021/08/28 04:36:12;;;;;;;10.82;8.85;;;13.80;85.00;;;12.38;89.48;95891.00;4967472;28;20042;-71
2021/08/28 04:38:38;;;;;;;10.82;7.90;;;13.80;85.00;;;12.40;89.78;95894.25;4982511;28;20078;-72
2021/08/28 04:41:04;;;;;;;11.63;8.30;;;13.90;84.80;;;12.39;89.74;95890.81;4985971;28;20046;-72
2021/08/28 04:43:30;;;;;;;10.57;8.57;;;13.90;84.70;;;12.40;89.75;95891.63;4974705;28;20042;-71
2021/08/28 04:45:55;;;;;;;8.90;8.00;;;13.90;85.00;;;12.40;89.39;95895.06;4988683;28;20042;-72
2021/08/28 04:48:21;;;;;;;14.32;8.82;;;13.90;84.80;;;12.40;89.39;95900.34;4988849;28;20112;-72
2021/08/28 04:50:47;;;;;;;11.02;8.32;;;13.90;84.80;;;12.40;89.32;95888.97;4989868;28;20038;-72
2021/08/28 04:53:12;;;;;;;11.57;8.95;;;13.80;84.60;;;12.44;89.57;95900.72;4974599;28;20445;-72
2021/08/28 04:55:38;;;;;;;10.60;8.68;;;13.90;84.80;;;12.39;89.28;95892.63;4990865;28;20564;-71
2021/08/28 04:58:04;;;;;;;12.48;8.90;;;13.80;84.80;;;12.39;90.20;95898.72;4957784;28;20170;-72
2021/08/28 05:00:31;;;;;;;10.40;8.63;;;13.90;85.00;;;12.40;89.33;95894.25;4966555;28;20066;-72
2021/08/28 05:02:57;;;;;;;11.40;9.45;;;13.90;85.00;;;12.42;89.63;95900.13;4958198;28;20035;-72
2021/08/28 05:05:23;;;;;;;11.52;8.82;;;13.90;84.80;;;12.41;90.29;95903.78;4955505;28;20023;-73
2021/08/28 05:07:48;;;;;;;11.40;8.77;;;13.90;84.70;;;12.43;90.36;95907.84;4955261;28;20066;-72
2021/08/28 05:10:14;;;;;;;10.65;8.32;;;14.00;84.90;;;12.44;89.58;95906.81;4980653;28;20039;-72
2021/08/28 05:12:40;;;;;;;11.95;8.65;;;13.90;84.70;;;12.44;90.11;95901.53;4973496;28;20409;-71
2021/08/28 05:15:06;;;;;;;11.57;8.13;;;14.10;84.60;;;12.47;89.91;95908.25;4990343;28;20038;-72
2021/08/28 05:17:32;;;;;;;11.40;8.02;;;14.00;84.50;;;12.50;90.27;95910.50;4986540;28;20084;-72
2021/08/28 05:19:58;;;;;;;9.23;8.15;;;14.10;84.40;;;12.50;90.23;95906.03;4972003;28;20510;-72
2021/08/28 05:22:23;;;;;;;11.88;7.78;;;14.10;84.70;;;12.51;90.73;95912.91;4972211;28;20089;-72
2021/08/28 05:24:49;;;;;;;12.98;10.30;;;14.10;84.50;;;12.53;90.07;95910.06;4989794;28;20066;-72
2021/08/28 05:27:15;;;;;;;9.20;8.18;;;14.10;84.30;;;12.55;89.79;95908.03;4957791;28;20034;-72
2021/08/28 05:29:40;;;;;;;8.68;7.28;;;14.10;84.50;;;12.60;89.91;95918.78;4970456;28;20046;-72
2021/08/28 05:32:08;;;;;;;9.30;6.95;;;14.20;84.20;;;12.63;90.27;95920.19;4978213;28;20034;-72
2021/08/28 05:34:34;;;;;;;8.48;6.97;;;14.20;84.00;;;12.67;89.36;95916.94;4992039;28;20039;-72
2021/08/28 05:37:00;;;;;;;7.25;6.47;;;14.20;84.40;;;12.69;90.26;95922.84;4969897;28;20117;-72
2021/08/28 05:39:26;;;;;;;8.50;6.47;;;14.30;84.10;;;12.72;89.89;95924.25;4973721;28;20043;-73
2021/08/28 05:41:51;;;;;;;7.00;5.93;;;14.40;83.90;;;12.74;89.38;95925.66;4985947;28;20113;-70
2021/08/28 05:44:17;;;;;;;6.68;5.78;;;14.40;83.60;;;12.76;89.63;95926.25;4989022;28;20134;-70
2021/08/28 05:46:43;;;;;;;6.57;5.63;;;14.30;83.50;;;12.79;89.28;95920.56;4974052;28;20030;-71
2021/08/28 05:49:09;;;;;;;7.65;5.82;;;14.40;83.30;;;12.84;89.20;95925.22;4948058;28;20206;-71
2021/08/28 05:51:34;;;;;;;7.78;6.70;;;14.50;83.10;;;12.84;88.92;95926.03;4954032;28;20070;-71
2021/08/28 05:54:00;;;;;;;7.97;5.90;;;14.50;83.00;;;12.89;88.78;95922.75;4954214;28;20466;-71
2021/08/28 05:56:26;;;;;;;6.70;5.65;;;14.40;83.20;;;12.89;88.42;95926.22;4970453;28;20577;-71
2021/08/28 05:58:51;;;;;;;7.03;5.70;;;14.40;83.20;;;12.90;89.09;95916.50;4943220;28;20031;-71
2021/08/28 06:01:17;;;;;;;9.60;5.80;;;14.50;83.00;;;12.93;89.17;95921.34;4973404;28;20054;-71
2021/08/28 06:03:43;;;;;;;6.35;5.75;;;14.60;83.00;;;12.96;88.68;95923.56;5006013;28;20506;-71
2021/08/28 06:06:09;;;;;;;6.22;5.63;;;14.50;83.00;;;13.01;88.79;95922.94;4989628;28;20526;-72
2021/08/28 06:08:34;;;;;;;8.07;5.85;;;14.60;82.50;;;13.03;87.97;95920.91;4975955;28;20045;-72
2021/08/28 06:11:00;;;;;;;7.53;6.45;;;14.60;82.40;;;13.06;88.67;95915.22;4954688;28;20042;-71
2021/08/28 06:13:26;;;;;;;7.70;5.60;;;14.70;82.40;;;13.11;88.45;95915.38;4989322;28;20508;-72
2021/08/28 06:15:52;;;;;;;7.97;6.97;;;14.70;82.20;;;13.16;87.67;95915.59;4989099;28;20027;-71
2021/08/28 06:18:17;;;;;;;14.35;12.82;;;14.80;82.30;;;13.21;88.07;95921.09;4984213;28;20444;-72
2021/08/28 06:20:43;;;;;;;10.45;8.68;;;14.90;82.30;;;13.24;88.47;95915.38;4982615;28;20524;-72
2021/08/28 06:23:09;;;;;;;6.93;6.22;;;14.90;82.20;;;13.28;88.39;95913.94;4968295;28;20049;-70
2021/08/28 06:25:35;;;;;;;12.38;10.90;;;14.90;82.00;;;13.30;88.03;95911.88;4989030;28;20399;-70
2021/08/28 06:28:00;;;;;;;16.58;13.80;;;15.00;82.00;;;13.31;87.76;95913.50;4991336;28;20170;-71
2021/08/28 06:30:26;;;;;;;10.30;8.90;;;15.10;81.90;;;13.37;87.23;95911.88;4969527;28;20046;-70
2021/08/28 06:32:52;;;;;;;8.95;7.40;;;15.10;81.70;;;13.39;88.51;95910.66;4969889;28;20077;-68
2021/08/28 06:35:17;;;;;;;6.50;5.65;;;15.10;81.90;;;13.43;88.20;95916.31;4953529;28;20043;-69
2021/08/28 06:37:43;;;;;;;6.25;5.65;;;15.20;81.30;;;13.46;88.15;95918.53;4982519;28;20038;-69
2021/08/28 06:40:09;;;;;;;10.15;5.20;;;15.20;81.00;;;13.52;87.79;95908.94;4973288;28;20454;-69
2021/08/28 06:42:36;;;;;;;5.90;4.72;;;15.30;80.30;;;13.57;86.76;95917.03;4964750;28;20030;-69
2021/08/28 06:45:03;;;;;;;6.57;5.10;;;15.30;79.70;;;13.61;86.92;95912.97;5010799;28;20055;-68
2021/08/28 06:47:34;;;;;;;4.97;4.25;;;15.40;79.30;;;13.65;85.67;95916.81;4989830;28;20050;-73
2021/08/28 06:49:59;;;;;;;4.93;4.43;;;15.50;78.60;;;13.71;86.25;95910.66;4984641;28;20046;-73
2021/08/28 06:52:25;;;;;;;5.88;4.57;;;15.70;78.10;;;13.83;85.90;95918.75;4979189;28;20038;-73
2021/08/28 06:54:51;;;;;;;5.45;3.85;;;15.90;77.80;;;13.94;85.94;95916.19;4987919;28;20042;-71
2021/08/28 06:57:17;;;;;;;10.43;3.85;;;16.10;76.80;;;14.05;85.88;95915.53;4980016;28;20039;-71
2021/08/28 06:59:43;;;;;;;5.07;3.53;;;16.20;76.50;;;14.18;85.50;95919.88;4980820;28;20060;-70
2021/08/28 07:02:09;;;;;;;4.47;3.50;;;16.30;76.70;;;14.32;85.29;95925.91;4981658;28;20125;-72
2021/08/28 07:04:35;;;;;;;5.35;3.38;;;16.50;75.70;;;14.42;83.76;95926.19;4969096;28;20514;-72
2021/08/28 07:07:00;;;;;;;7.18;6.45;;;16.40;75.30;;;14.52;84.08;95931.84;4973387;28;20042;-70
2021/08/28 07:09:26;;;;;;;9.27;8.35;;;16.60;74.50;;;14.58;82.92;95925.69;4970701;28;20069;-68
2021/08/28 07:11:52;;;;;;;4.72;4.20;;;16.60;74.70;;;14.62;82.59;95921.56;4988899;28;20062;-69
2021/08/28 07:14:18;;;;;;;3.95;3.58;;;16.60;74.10;;;14.63;82.19;95925.84;4984067;28;20038;-70
2021/08/28 07:16:43;;;;;;;5.25;3.40;;;16.50;73.60;;;14.67;81.67;95924.38;4975444;28;20038;-69
2021/08/28 07:19:09;;;;;;;4.10;3.60;;;16.60;74.10;;;14.70;80.36;95928.41;4992117;28;20093;-70
2021/08/28 07:21:35;;;;;;;3.40;3.08;;;16.50;73.30;;;14.73;80.86;95924.53;4991863;28;20030;-69
2021/08/28 07:24:01;;;;;;;6.82;6.20;;;16.60;73.40;;;14.78;80.31;95924.69;4983854;28;20096;-69
2021/08/28 07:26:26;;;;;;;5.10;4.18;;;16.60;73.90;;;14.85;82.02;95928.06;4976082;28;20038;-68
2021/08/28 07:28:52;;;;;;;5.63;4.22;;;16.90;74.60;;;14.93;79.91;95919.81;4992399;28;20062;-68
2021/08/28 07:31:18;;;;;;;3.38;2.92;;;17.00;72.30;;;15.06;79.88;95922.34;4991821;28;20030;-69
2021/08/28 07:33:43;;;;;;;5.47;4.97;;;17.30;70.50;;;15.22;80.61;95921.75;4991746;28;20050;-68
2021/08/28 07:36:09;;;;;;;8.00;6.93;;;17.60;71.80;;;15.38;80.45;95912.38;4975652;28;20180;-69
2021/08/28 07:38:35;;;;;;;3.08;2.50;;;17.60;71.30;;;15.45;79.12;95920.25;4993827;28;20058;-69
2021/08/28 07:41:01;;;;;;;3.15;2.15;;;17.50;70.60;;;15.46;78.83;95917.38;4971749;28;20030;-70
2021/08/28 07:43:27;;;;;;;3.22;2.50;;;17.40;69.90;;;15.50;78.48;95917.75;4983024;28;20050;-72
2021/08/28 07:45:52;;;;;;;3.30;2.50;;;17.30;70.20;;;15.51;78.22;95916.69;4956345;28;20038;-72
2021/08/28 07:48:18;;;;;;;4.00;3.25;;;17.40;71.60;;;15.54;77.95;95918.91;4974768;28;20061;-71
2021/08/28 07:50:44;;;;;;;3.83;2.35;;;17.40;72.00;;;15.52;77.91;95918.31;4992279;28;20027;-70
2021/08/28 07:53:09;;;;;;;3.20;2.90;;;17.20;71.20;;;15.51;77.39;95924.66;4991526;28;20439;-71
2021/08/28 07:55:35;;;;;;;8.65;2.67;;;17.20;71.80;;;15.43;78.35;95922.31;5007971;28;20439;-71
2021/08/28 07:58:01;;;;;;;8.32;6.28;;;17.00;72.20;;;15.40;78.50;95923.59;4984257;28;20487;-73
2021/08/28 08:00:27;;;;;;;7.75;6.05;;;17.10;72.60;;;15.41;78.31;95924.41;4988750;28;20604;-72
2021/08/28 08:02:52;;;;;;;4.90;4.28;;;17.10;73.10;;;15.44;78.34;95921.28;4986268;28;20034;-72
2021/08/28 08:05:18;;;;;;;4.65;3.92;;;17.30;72.30;;;15.49;78.21;95924.06;4991583;28;20501;-72
2021/08/28 08:07:44;;;;;;;3.40;2.65;;;17.50;71.90;;;15.54;78.09;95918.91;4987242;28;20050;-73
2021/08/28 08:10:10;;;;;;;6.07;5.47;;;17.50;72.40;;;15.59;78.93;95927.00;4987423;28;20070;-72
2021/08/28 08:12:35;;;;;;;5.60;3.70;;;17.60;71.90;;;15.62;78.46;95921.28;5006835;28;20031;-72
2021/08/28 08:15:01;;;;;;;7.68;6.30;;;17.60;71.20;;;15.63;77.76;95925.56;4974421;28;20058;-71
2021/08/28 08:17:27;;;;;;;3.67;3.20;;;17.50;71.20;;;15.63;77.56;95928.22;4973137;28;20042;-72
2021/08/28 08:19:53;;;;;;;2.95;2.65;;;17.60;70.70;;;15.70;77.63;95933.41;4947495;28;20594;-71
2021/08/28 08:22:19;;;;;;;3.55;2.88;;;17.70;71.00;;;15.80;77.17;95928.38;4956024;28;20565;-72
2021/08/28 08:24:44;;;;;;;4.15;3.20;;;18.00;70.60;;;15.86;76.97;95923.00;4987520;28;20518;-72
2021/08/28 08:27:11;;;;;;;3.08;2.75;;;18.10;69.10;;;15.95;76.72;95927.97;4973196;28;20050;-71
2021/08/28 08:29:36;;;;;;;6.47;5.45;;;18.10;68.10;;;16.02;77.05;95926.00;4961877;28;20035;-72
2021/08/28 08:32:03;;;;;;;3.70;3.30;;;18.20;68.90;;;16.10;76.26;95931.00;4980549;28;20045;-72
2021/08/28 08:34:28;;;;;;;4.97;4.28;;;18.30;69.00;;;16.15;76.48;95926.63;4989034;28;20038;-72
2021/08/28 08:36:54;;;;;;;5.10;4.22;;;18.20;68.40;;;16.19;76.05;95921.66;4976254;28;20042;-73
2021/08/28 08:39:20;;;;;;;5.57;4.18;;;18.30;67.90;;;16.22;75.84;95921.22;4991020;28;20027;-72
2021/08/28 08:41:46;;;;;;;2.83;2.38;;;18.40;68.30;;;16.27;75.14;95929.28;4989740;28;20149;-72
2021/08/28 08:44:12;;;;;;;2.88;2.38;;;18.40;67.10;;;16.31;75.32;95933.13;4990845;28;20470;-73
2021/08/28 08:46:38;;;;;;;3.25;2.60;;;18.50;66.90;;;16.38;74.81;95925.84;4973772;28;20046;-72
2021/08/28 08:49:05;;;;;;;2.88;2.28;;;18.60;67.60;;;16.42;76.33;95924.34;4974464;28;20066;-72
2021/08/28 08:51:33;;;;;;;2.80;2.50;;;18.60;68.20;;;16.47;75.13;95921.81;4989537;28;20513;-72
2021/08/28 08:54:03;;;;;;;2.70;2.20;;;18.60;67.90;;;16.50;74.43;95933.81;4955564;28;20126;-72
2021/08/28 08:56:29;;;;;;;4.10;2.95;;;18.60;67.50;;;16.53;73.88;95930.72;4955110;28;20054;-72
2021/08/28 08:58:54;;;;;;;2.38;2.10;;;18.60;66.10;;;16.60;73.43;95927.97;4989539;28;20035;-72
2021/08/28 09:01:20;;;;;;;2.42;1.70;;;18.80;65.90;;;16.73;73.49;95922.44;4972905;28;20034;-74
2021/08/28 09:03:46;;;;;;;1.83;1.63;;;18.90;65.20;;;16.90;73.37;95923.34;4971872;28;20514;-73
2021/08/28 09:06:12;;;;;;;2.10;1.65;;;19.40;64.50;;;17.10;73.03;95918.47;4974011;28;20050;-74
2021/08/28 09:08:37;;;;;;;4.28;1.95;;;19.80;63.60;;;17.30;72.68;95914.63;4938632;28;20486;-68
2021/08/28 09:11:03;;;;;;;1.92;1.23;;;20.00;61.70;;;17.52;71.94;95915.59;4985616;28;20050;-69
2021/08/28 09:13:29;;;;;;;2.55;1.70;;;20.50;59.50;;;17.84;71.07;95907.97;4967324;28;20096;-69
2021/08/28 09:16:04;;;;;;;18.42;13.98;;;21.00;57.50;;;18.25;69.82;95908.66;4989682;28;20030;-69
2021/08/28 09:18:51;;;;;;;2.40;1.60;;;21.50;56.90;;;18.66;68.16;95915.47;4973356;28;20462;-72
2021/08/28 09:21:22;;;;;;;1.20;0.90;;;21.60;57.80;;;18.79;69.06;95919.66;4965799;28;20039;-72
2021/08/28 09:23:47;;;;;;;1.85;1.40;;;21.60;56.50;;;19.01;68.09;95917.00;4958163;28;20525;-72
2021/08/28 09:26:30;;;;;;;1.17;0.80;;;21.70;56.10;;;19.08;63.26;95928.31;4971879;28;20125;-69
2021/08/28 09:28:57;;;;;;;3.53;1.30;;;21.60;53.80;;;19.30;65.78;95923.81;4954269;28;20049;-74
2021/08/28 09:31:46;;;;;;;2.03;1.70;;;22.10;52.10;;;19.39;62.08;95919.63;4956353;28;20034;-75
2021/08/28 09:34:25;;;;;;;1.70;1.15;;;21.70;54.00;;;19.35;61.61;95918.53;4987902;28;20608;-74
2021/08/28 09:37:03;;;;;;;1.48;1.05;;;21.60;53.30;;;19.33;63.80;95915.31;4972428;28;20043;-74
2021/08/28 09:39:48;;;;;;;2.03;1.10;;;21.40;53.90;;;19.35;61.04;95928.38;4970259;28;20467;-74
2021/08/28 09:42:22;;;;;;;2.75;1.15;;;21.60;53.60;;;19.43;62.28;95931.41;4972178;28;20035;-73
2021/08/28 09:44:49;;;;;;;1.50;1.10;;;21.90;54.00;;;19.44;63.17;95934.88;4971615;28;20093;-70
2021/08/28 09:47:23;;;;;;;2.45;1.00;;;21.50;52.90;;;19.35;60.10;95934.53;4989864;28;20115;-75
2021/08/28 09:49:51;;;;;;;2.28;1.92;;;21.10;52.30;;;19.23;61.65;95944.50;4956336;28;20041;-72
2021/08/28 09:52:20;;;;;;;2.63;2.17;;;21.10;53.80;;;19.12;62.21;95945.44;4980994;28;20105;-73
2021/08/28 09:54:46;;;;;;;3.08;2.30;;;20.90;54.70;;;18.86;61.40;95937.06;4980912;28;20042;-73
2021/08/28 09:57:12;;;;;;;1.23;0.60;;;20.40;54.90;;;18.65;60.99;95941.28;4988909;28;20117;-72
2021/08/28 09:59:37;;;;;;;0.57;0.40;;;20.10;53.80;;;18.43;60.72;95939.56;4989402;28;20539;-71
2021/08/28 10:02:09;;;;;;;1.48;0.30;;;19.90;53.50;;;18.19;59.61;95926.41;4981623;28;20046;-76
2021/08/28 10:04:50;;;;;;;2.30;0.70;;;19.70;53.50;;;18.09;58.98;95938.72;4989869;28;20030;-72
2021/08/28 10:07:30;;;;;;;3.08;0.60;;;19.70;53.40;;;17.90;59.28;95928.31;4969859;28;20130;-70
2021/08/28 10:10:01;;;;;;;2.03;1.10;;;19.60;54.40;;;17.80;60.08;95929.97;4956035;28;20060;-69
2021/08/28 10:12:26;;;;;;;1.98;1.25;;;19.60;55.00;;;17.71;60.04;95930.34;4970253;28;20376;-69
2021/08/28 10:14:55;;;;;;;1.23;0.80;;;19.70;52.30;;;17.79;60.04;95921.16;4955485;28;20041;-69
2021/08/28 10:17:24;;;;;;;0.90;0.63;;;20.20;52.00;;;18.01;60.06;95908.78;4971653;28;20395;-69
2021/08/28 10:19:52;;;;;;;0.88;0.65;;;20.70;51.40;;;18.22;59.31;95915.28;4985600;28;20031;-72